createdAt,value
2023-01-10T00:02:26.076Z,27.67
2023-01-10T00:04:52.817Z,31.37
2023-01-10T00:07:19.469Z,29.37
2023-01-10T00:09:46.162Z,31.67
2023-01-10T00:12:31.350Z,26.23
2023-01-10T00:14:57.984Z,28.47
2023-01-10T00:17:24.558Z,31.13
2023-01-10T00:19:51.266Z,24.30
2023-01-10T00:22:20.234Z,21.57
2023-01-10T00:24:46.911Z,23.07
2023-01-10T00:27:13.555Z,23.20
2023-01-10T00:29:40.152Z,24.80
2023-01-10T00:32:06.814Z,29.37
2023-01-10T00:34:34.838Z,29.27
2023-01-10T00:37:01.421Z,25.07
2023-01-10T00:39:28.126Z,27.43
2023-01-10T00:42:13.280Z,24.63
2023-01-10T00:44:39.932Z,32.10
2023-01-10T00:47:06.784Z,27.87
2023-01-10T00:49:33.432Z,22.67
2023-01-10T00:52:00.168Z,28.40
2023-01-10T00:54:26.848Z,21.97
2023-01-10T00:56:53.414Z,30.47
2023-01-10T00:59:20.098Z,20.20
2023-01-10T01:01:46.856Z,23.23
2023-01-10T01:04:13.544Z,26.53
2023-01-10T01:06:40.227Z,22.83
2023-01-10T01:09:06.947Z,20.10
2023-01-10T01:11:33.573Z,18.40
2023-01-10T01:14:00.200Z,23.57
2023-01-10T01:16:26.816Z,16.47
2023-01-10T01:18:53.496Z,19.83
2023-01-10T01:21:21.399Z,16.53
2023-01-10T01:23:48.066Z,18.50
2023-01-10T01:26:14.757Z,18.90
2023-01-10T01:28:41.377Z,15.97
2023-01-10T01:31:09.772Z,14.97
2023-01-10T01:33:37.198Z,19.03
2023-01-10T01:36:08.725Z,17.93
2023-01-10T01:38:36.139Z,12.20
2023-01-10T01:41:02.804Z,11.70
2023-01-10T01:43:34.527Z,22.10
2023-01-10T01:46:02.908Z,16.27
2023-01-10T01:48:36.878Z,12.93
2023-01-10T01:51:08.025Z,11.70
2023-01-10T01:53:44.569Z,10.60
2023-01-10T01:56:19.165Z,11.83
2023-01-10T01:58:56.942Z,17.57
2023-01-10T02:01:24.002Z,8.90
2023-01-10T02:03:54.473Z,11.50
2023-01-10T02:06:21.672Z,10.17
2023-01-10T02:09:03.702Z,8.23
2023-01-10T02:11:30.770Z,9.43
2023-01-10T02:13:57.966Z,10.40
2023-01-10T02:16:24.646Z,9.53
2023-01-10T02:18:51.262Z,8.83
2023-01-10T02:21:34.866Z,10.73
2023-01-10T02:24:24.006Z,13.50
2023-01-10T02:27:37.325Z,10.23
2023-01-10T02:30:45.361Z,13.33
2023-01-10T02:33:31.337Z,10.70
2023-01-10T02:36:10.067Z,16.43
2023-01-10T02:38:46.512Z,10.83
2023-01-10T02:41:19.075Z,9.37
2023-01-10T02:43:51.494Z,11.50
2023-01-10T02:46:25.111Z,18.10
2023-01-10T02:48:53.037Z,16.37
2023-01-10T02:51:21.472Z,8.80
2023-01-10T02:53:54.258Z,11.63
2023-01-10T02:57:03.192Z,16.43
2023-01-10T02:59:48.035Z,12.53
2023-01-10T03:02:26.459Z,16.13
2023-01-10T03:05:09.099Z,17.97
2023-01-10T03:07:42.676Z,14.07
2023-01-10T03:10:27.460Z,15.10
2023-01-10T03:13:05.245Z,13.43
2023-01-10T03:15:35.080Z,17.30
2023-01-10T03:18:04.186Z,22.60
2023-01-10T03:20:32.671Z,17.37
2023-01-10T03:23:01.601Z,20.93
2023-01-10T03:25:34.080Z,26.47
2023-01-10T03:28:04.781Z,22.80
2023-01-10T03:30:48.694Z,16.10
2023-01-10T03:33:18.710Z,22.27
2023-01-10T03:36:04.649Z,24.37
2023-01-10T03:38:46.424Z,17.97
2023-01-10T03:41:25.178Z,36.00
2023-01-10T03:44:16.116Z,23.00
2023-01-10T03:46:47.534Z,23.90
2023-01-10T03:49:15.791Z,22.07
2023-01-10T03:51:42.928Z,18.90
2023-01-10T03:54:09.612Z,24.50
2023-01-10T03:56:46.966Z,35.23
2023-01-10T03:59:13.700Z,33.73
2023-01-10T04:01:40.366Z,28.37
2023-01-10T04:04:07.121Z,35.00
2023-01-10T04:06:33.966Z,20.10
2023-01-10T04:09:00.714Z,26.03
2023-01-10T04:11:27.353Z,36.13
2023-01-10T04:13:54.046Z,31.63
2023-01-10T04:16:21.082Z,25.13
2023-01-10T04:18:47.878Z,20.00
2023-01-10T04:21:14.647Z,31.90
2023-01-10T04:23:41.309Z,19.90
2023-01-10T04:26:08.110Z,20.90
2023-01-10T04:28:34.675Z,27.67
2023-01-10T04:31:01.667Z,23.20
2023-01-10T04:33:28.524Z,32.47
2023-01-10T04:35:55.415Z,32.13
2023-01-10T04:38:24.415Z,21.00
2023-01-10T04:40:55.813Z,25.10
2023-01-10T04:43:23.771Z,22.67
2023-01-10T04:45:50.734Z,22.87
2023-01-10T04:48:17.504Z,27.53
2023-01-10T04:50:49.468Z,25.73
2023-01-10T04:53:16.060Z,23.40
2023-01-10T04:55:42.967Z,27.70
2023-01-10T04:58:09.623Z,25.27
2023-01-10T05:00:36.272Z,25.67
2023-01-10T05:03:02.976Z,25.33
2023-01-10T05:05:29.772Z,27.10
2023-01-10T05:07:56.407Z,27.03
2023-01-10T05:10:23.128Z,29.20
2023-01-10T05:12:49.734Z,22.97
2023-01-10T05:15:16.744Z,28.37
2023-01-10T05:17:43.416Z,34.13
2023-01-10T05:20:10.732Z,37.33
2023-01-10T05:22:37.347Z,25.43
2023-01-10T05:25:04.346Z,29.30
2023-01-10T05:27:30.979Z,23.63
2023-01-10T05:29:57.643Z,28.50
2023-01-10T05:32:29.507Z,35.80
2023-01-10T05:34:56.904Z,22.70
2023-01-10T05:37:23.546Z,27.73
2023-01-10T05:39:50.166Z,23.23
2023-01-10T05:42:16.807Z,30.37
2023-01-10T05:44:43.370Z,25.43
2023-01-10T05:47:10.063Z,25.27
2023-01-10T05:49:36.627Z,23.93
2023-01-10T05:52:03.303Z,44.20
2023-01-10T05:54:30.882Z,22.73
2023-01-10T05:56:58.696Z,28.20
2023-01-10T05:59:28.432Z,21.10
2023-01-10T06:01:55.577Z,20.27
2023-01-10T06:04:22.259Z,17.90
2023-01-10T06:06:48.869Z,29.33
2023-01-10T06:09:15.472Z,31.27
2023-01-10T06:11:44.470Z,27.13
2023-01-10T06:14:11.069Z,27.00
2023-01-10T06:16:37.763Z,22.23
2023-01-10T06:19:04.550Z,23.40
2023-01-10T06:21:31.268Z,35.33
2023-01-10T06:23:58.096Z,26.40
2023-01-10T06:26:24.873Z,22.67
2023-01-10T06:28:51.624Z,25.43
2023-01-10T06:31:18.808Z,21.77
2023-01-10T06:33:46.086Z,29.10
2023-01-10T06:36:12.732Z,23.47
2023-01-10T06:38:39.406Z,23.83
2023-01-10T06:41:13.131Z,20.93
2023-01-10T06:43:45.399Z,26.30
2023-01-10T06:46:17.444Z,21.67
2023-01-10T06:48:45.460Z,23.03
2023-01-10T06:51:13.279Z,29.97
2023-01-10T06:53:39.878Z,28.27
2023-01-10T06:56:07.052Z,27.83
2023-01-10T06:58:34.810Z,21.53
2023-01-10T07:01:01.625Z,27.97
2023-01-10T07:03:28.437Z,22.73
2023-01-10T07:05:55.158Z,26.10
2023-01-10T07:08:21.773Z,23.20
2023-01-10T07:10:48.466Z,25.00
2023-01-10T07:13:15.067Z,27.17
2023-01-10T07:15:41.690Z,30.70
2023-01-10T07:18:09.438Z,21.20
2023-01-10T07:20:37.531Z,23.47
2023-01-10T07:23:04.209Z,28.57
2023-01-10T07:25:30.822Z,23.70
2023-01-10T07:27:57.570Z,25.20
2023-01-10T07:30:25.490Z,27.73
2023-01-10T07:32:58.707Z,28.20
2023-01-10T07:35:26.022Z,32.37
2023-01-10T07:37:52.750Z,30.37
2023-01-10T07:40:19.556Z,43.33
2023-01-10T07:42:46.227Z,42.83
2023-01-10T07:45:12.903Z,27.83
2023-01-10T07:47:39.808Z,33.27
2023-01-10T07:50:07.150Z,34.83
2023-01-10T07:52:33.881Z,36.30
2023-01-10T07:55:00.567Z,31.53
2023-01-10T07:57:27.253Z,39.03
2023-01-10T07:59:53.882Z,32.83
2023-01-10T08:02:20.617Z,36.47
2023-01-10T08:04:47.324Z,42.17
2023-01-10T08:07:14.011Z,34.97
2023-01-10T08:09:40.740Z,39.00
2023-01-10T08:12:07.456Z,38.40
2023-01-10T08:14:34.099Z,38.47
2023-01-10T08:17:01.065Z,43.00
2023-01-10T08:19:27.686Z,36.97
2023-01-10T08:21:55.089Z,35.90
2023-01-10T08:24:21.733Z,38.60
2023-01-10T08:26:48.409Z,38.07
2023-01-10T08:29:16.041Z,28.37
2023-01-10T08:31:42.805Z,42.97
2023-01-10T08:34:09.453Z,35.07
2023-01-10T08:36:36.156Z,32.10
2023-01-10T08:39:02.721Z,34.00
2023-01-10T08:41:29.527Z,46.83
2023-01-10T08:43:56.198Z,39.90
2023-01-10T08:46:22.887Z,37.90
2023-01-10T08:48:50.632Z,29.00
2023-01-10T08:51:17.644Z,36.10
2023-01-10T08:53:44.500Z,30.33
2023-01-10T08:56:11.694Z,41.53
2023-01-10T08:58:38.550Z,40.20
2023-01-10T09:01:06.647Z,36.43
2023-01-10T09:03:33.546Z,33.70
2023-01-10T09:06:01.093Z,48.90
2023-01-10T09:08:28.353Z,35.37
2023-01-10T09:10:55.021Z,33.17
2023-01-10T09:13:21.752Z,37.63
2023-01-10T09:15:49.092Z,28.33
2023-01-10T09:18:15.779Z,34.37
2023-01-10T09:20:43.574Z,41.87
2023-01-10T09:23:20.104Z,35.43
2023-01-10T09:25:48.047Z,32.17
2023-01-10T09:28:15.184Z,38.17
2023-01-10T09:30:42.179Z,36.13
2023-01-10T09:33:08.857Z,32.37
2023-01-10T09:35:39.619Z,35.83
2023-01-10T09:38:08.646Z,38.33
2023-01-10T09:40:56.706Z,35.70
2023-01-10T09:44:08.337Z,34.77
2023-01-10T09:46:50.578Z,28.90
2023-01-10T09:49:56.025Z,33.00
2023-01-10T09:52:28.031Z,34.33
2023-01-10T09:54:56.120Z,29.23
2023-01-10T09:57:23.133Z,35.17
2023-01-10T09:59:51.880Z,37.17
2023-01-10T10:02:24.646Z,28.73
2023-01-10T10:05:15.902Z,32.00
2023-01-10T10:07:42.694Z,31.60
2023-01-10T10:10:17.731Z,31.17
2023-01-10T10:12:59.418Z,30.57
2023-01-10T10:15:48.411Z,36.73
2023-01-10T10:18:36.152Z,31.23
2023-01-10T10:21:12.508Z,29.73
2023-01-10T10:23:57.919Z,30.90
2023-01-10T10:26:36.466Z,45.80
2023-01-10T10:29:28.577Z,28.67
2023-01-10T10:32:18.080Z,37.30
2023-01-10T10:34:54.237Z,42.23
2023-01-10T10:37:39.158Z,46.87
2023-01-10T10:40:16.688Z,35.67
2023-01-10T10:42:47.289Z,46.10
2023-01-10T10:45:33.818Z,39.23
2023-01-10T10:48:04.076Z,36.77
2023-01-10T10:50:35.295Z,37.90
2023-01-10T10:53:03.160Z,41.27
2023-01-10T10:55:32.954Z,37.73
2023-01-10T10:58:00.981Z,45.03
2023-01-10T11:00:29.269Z,37.87
2023-01-10T11:03:20.631Z,35.13
2023-01-10T11:05:47.838Z,27.50
2023-01-10T11:08:16.586Z,36.87
2023-01-10T11:10:46.753Z,28.57
2023-01-10T11:13:25.513Z,30.50
2023-01-10T11:15:53.211Z,31.00
2023-01-10T11:18:24.357Z,30.90
2023-01-10T11:20:58.095Z,34.37
2023-01-10T11:23:42.855Z,30.80
2023-01-10T11:26:27.797Z,30.67
2023-01-10T11:29:05.891Z,35.07
2023-01-10T11:31:32.891Z,38.10
2023-01-10T11:34:00.869Z,30.20
2023-01-10T11:36:27.491Z,31.10
2023-01-10T11:39:02.325Z,35.07
2023-01-10T11:41:34.320Z,39.53
2023-01-10T11:44:16.649Z,34.13
2023-01-10T11:46:47.466Z,29.67
2023-01-10T11:49:38.302Z,38.20
2023-01-10T11:52:07.471Z,26.07
2023-01-10T11:54:34.274Z,46.67
2023-01-10T11:57:07.829Z,42.00
2023-01-10T11:59:34.741Z,30.03
2023-01-10T12:02:13.947Z,35.77
2023-01-10T12:04:43.339Z,28.40
2023-01-10T12:07:12.308Z,26.30
2023-01-10T12:09:55.597Z,33.03
2023-01-10T12:12:34.454Z,29.63
2023-01-10T12:15:25.971Z,32.07
2023-01-10T12:17:53.047Z,27.23
2023-01-10T12:20:19.908Z,28.47
2023-01-10T12:22:49.192Z,31.13
2023-01-10T12:25:22.938Z,27.47
2023-01-10T12:27:52.515Z,29.90
2023-01-10T12:30:32.933Z,38.30
2023-01-10T12:33:03.323Z,29.27
2023-01-10T12:35:40.473Z,32.43
2023-01-10T12:38:59.829Z,23.03
2023-01-10T12:42:24.034Z,31.73
2023-01-10T12:44:57.807Z,25.53
2023-01-10T12:47:46.191Z,28.60
2023-01-10T12:50:14.583Z,21.10
2023-01-10T12:52:59.895Z,27.53
2023-01-10T12:55:30.688Z,23.70
2023-01-10T12:58:00.286Z,23.00
2023-01-10T13:00:32.755Z,26.33
2023-01-10T13:03:05.930Z,22.67
2023-01-10T13:05:32.884Z,29.93
2023-01-10T13:08:03.424Z,21.73
2023-01-10T13:10:31.438Z,21.80
2023-01-10T13:13:16.373Z,24.20
2023-01-10T13:15:51.241Z,24.07
2023-01-10T13:18:29.814Z,17.23
2023-01-10T13:21:18.316Z,21.93
2023-01-10T13:23:58.792Z,27.60
2023-01-10T13:26:25.574Z,23.07
2023-01-10T13:28:57.881Z,23.40
2023-01-10T13:31:34.916Z,25.93
2023-01-10T13:34:07.986Z,16.80
2023-01-10T13:36:38.657Z,25.37
2023-01-10T13:39:08.900Z,21.27
2023-01-10T13:42:29.284Z,14.83
2023-01-10T13:45:04.504Z,26.00
2023-01-10T13:47:40.545Z,17.27
2023-01-10T13:50:22.529Z,17.83
2023-01-10T13:52:50.052Z,24.97
2023-01-10T13:55:40.044Z,21.70
2023-01-10T13:58:09.933Z,29.50
2023-01-10T14:00:55.241Z,21.50
2023-01-10T14:03:40.666Z,19.13
2023-01-10T14:06:29.837Z,22.30
2023-01-10T14:08:58.897Z,19.37
2023-01-10T14:11:28.239Z,21.83
2023-01-10T14:13:57.515Z,34.40
2023-01-10T14:16:37.019Z,16.23
2023-01-10T14:19:08.020Z,18.13
2023-01-10T14:21:45.473Z,16.10
2023-01-10T14:24:39.340Z,16.70
2023-01-10T14:27:07.603Z,18.97
2023-01-10T14:29:34.681Z,22.50
2023-01-10T14:32:01.604Z,21.90
2023-01-10T14:34:36.919Z,22.67
2023-01-10T14:37:09.028Z,14.50
2023-01-10T14:39:35.865Z,23.43
2023-01-10T14:42:05.728Z,24.90
2023-01-10T14:44:45.830Z,27.97
2023-01-10T14:47:28.973Z,17.10
2023-01-10T14:49:58.126Z,19.70
2023-01-10T14:52:25.983Z,22.40
2023-01-10T14:55:03.016Z,16.07
2023-01-10T14:57:29.777Z,20.23
2023-01-10T15:00:12.051Z,22.30
2023-01-10T15:02:44.052Z,16.40
2023-01-10T15:05:26.100Z,24.97
2023-01-10T15:07:53.794Z,21.73
2023-01-10T15:10:35.385Z,15.60
2023-01-10T15:13:03.429Z,22.77
2023-01-10T15:15:35.661Z,18.37
2023-01-10T15:18:06.673Z,15.50
2023-01-10T15:20:34.106Z,50.30
2023-01-10T15:23:01.882Z,18.13
2023-01-10T15:25:39.007Z,16.80
2023-01-10T15:28:14.382Z,17.90
2023-01-10T15:30:41.550Z,15.30
2023-01-10T15:33:13.235Z,18.17
2023-01-10T15:35:40.623Z,13.97
2023-01-10T15:38:09.182Z,17.90
2023-01-10T15:40:37.285Z,13.40
2023-01-10T15:43:10.790Z,17.27
2023-01-10T15:45:39.786Z,10.43
2023-01-10T15:48:25.596Z,16.83
2023-01-10T15:51:14.665Z,15.67
2023-01-10T15:54:00.592Z,17.40
2023-01-10T15:56:41.636Z,11.83
2023-01-10T15:59:25.458Z,16.00
2023-01-10T16:01:59.011Z,17.53
2023-01-10T16:04:25.837Z,8.40
2023-01-10T16:07:06.901Z,11.87
2023-01-10T16:09:34.107Z,20.50
2023-01-10T16:12:19.356Z,17.20
2023-01-10T16:14:46.141Z,18.50
2023-01-10T16:17:12.797Z,14.60
2023-01-10T16:19:39.441Z,12.20
2023-01-10T16:22:06.349Z,16.10
2023-01-10T16:24:35.556Z,19.97
2023-01-10T16:27:06.030Z,10.87
2023-01-10T16:29:33.437Z,9.10
2023-01-10T16:32:00.115Z,14.37
2023-01-10T16:34:26.805Z,15.07
2023-01-10T16:36:53.406Z,10.63
2023-01-10T16:39:22.107Z,16.77
2023-01-10T16:42:07.687Z,7.93
2023-01-10T16:44:34.791Z,14.40
2023-01-10T16:47:01.920Z,9.47
2023-01-10T16:49:28.541Z,11.50
2023-01-10T16:51:57.332Z,11.40
2023-01-10T16:54:25.983Z,10.90
2023-01-10T16:56:52.707Z,7.60
2023-01-10T16:59:20.433Z,23.23
2023-01-10T17:01:56.262Z,13.87
2023-01-10T17:04:27.203Z,9.77
2023-01-10T17:06:54.173Z,11.47
2023-01-10T17:09:28.403Z,9.70
2023-01-10T17:12:05.919Z,10.47
2023-01-10T17:14:34.709Z,14.13
2023-01-10T17:17:03.088Z,9.07
2023-01-10T17:19:30.191Z,22.67
2023-01-10T17:21:56.833Z,8.17
2023-01-10T17:24:23.452Z,12.57
2023-01-10T17:26:50.117Z,9.30
2023-01-10T17:29:16.710Z,14.93
2023-01-10T17:31:43.355Z,10.43
2023-01-10T17:34:10.002Z,12.10
2023-01-10T17:36:39.057Z,7.87
2023-01-10T17:39:06.594Z,17.97
2023-01-10T17:41:34.013Z,21.77
2023-01-10T17:44:00.677Z,9.63
2023-01-10T17:46:27.307Z,10.30
2023-01-10T17:48:53.982Z,11.67
2023-01-10T17:51:22.618Z,13.17
2023-01-10T17:53:49.212Z,11.00
2023-01-10T17:56:16.472Z,10.90
2023-01-10T17:58:44.414Z,15.67
2023-01-10T18:01:19.227Z,10.97
2023-01-10T18:03:46.078Z,17.53
2023-01-10T18:06:23.473Z,11.73
2023-01-10T18:08:51.088Z,10.83
2023-01-10T18:11:17.712Z,11.07
2023-01-10T18:13:44.404Z,12.63
2023-01-10T18:16:11.165Z,18.40
2023-01-10T18:18:37.866Z,23.57
2023-01-10T18:21:05.385Z,13.90
2023-01-10T18:23:33.253Z,9.60
2023-01-10T18:26:04.086Z,12.53
2023-01-10T18:28:41.008Z,12.20
2023-01-10T18:31:11.922Z,13.47
2023-01-10T18:33:39.118Z,8.43
2023-01-10T18:36:07.727Z,11.47
2023-01-10T18:38:35.555Z,10.23
2023-01-10T18:41:02.308Z,10.53
2023-01-10T18:43:29.865Z,9.57
2023-01-10T18:46:01.412Z,8.80
2023-01-10T18:48:28.335Z,22.83
2023-01-10T18:50:56.065Z,7.93
2023-01-10T18:53:22.719Z,11.20
2023-01-10T18:55:59.816Z,13.43
2023-01-10T18:58:28.616Z,7.43
2023-01-10T19:00:55.449Z,11.17
2023-01-10T19:03:22.435Z,14.70
2023-01-10T19:05:49.315Z,14.17
2023-01-10T19:08:16.176Z,14.20
2023-01-10T19:11:07.202Z,17.73
2023-01-10T19:13:30.463Z,16.50
2023-01-10T19:16:16.497Z,13.20
2023-01-10T19:18:44.062Z,13.80
2023-01-10T19:21:15.522Z,17.13
2023-01-10T19:23:43.690Z,16.47
2023-01-10T19:26:10.582Z,15.10
2023-01-10T19:28:37.356Z,13.87
2023-01-10T19:31:05.429Z,9.33
2023-01-10T19:33:37.392Z,15.43
2023-01-10T19:36:07.606Z,14.57
2023-01-10T19:38:34.528Z,6.20
2023-01-10T19:41:01.397Z,8.00
2023-01-10T19:43:28.301Z,16.97
2023-01-10T19:45:55.091Z,9.57
2023-01-10T19:48:23.076Z,19.43
2023-01-10T19:50:49.672Z,11.67
2023-01-10T19:53:16.281Z,8.97
2023-01-10T19:55:42.980Z,9.00
2023-01-10T19:58:09.680Z,18.13
2023-01-10T20:00:36.325Z,8.57
2023-01-10T20:03:05.139Z,15.83
2023-01-10T20:05:34.661Z,10.70
2023-01-10T20:08:02.127Z,16.40
2023-01-10T20:10:29.063Z,17.73
2023-01-10T20:12:55.679Z,16.17
2023-01-10T20:15:22.328Z,12.00
2023-01-10T20:17:49.049Z,12.07
2023-01-10T20:20:16.734Z,10.13
2023-01-10T20:22:43.369Z,15.97
2023-01-10T20:25:10.261Z,14.23
2023-01-10T20:27:36.836Z,11.87
2023-01-10T20:30:04.460Z,11.20
2023-01-10T20:32:31.393Z,10.20
2023-01-10T20:34:58.186Z,8.97
2023-01-10T20:37:25.030Z,14.50
2023-01-10T20:39:51.748Z,15.00
2023-01-10T20:42:18.440Z,8.30
2023-01-10T20:44:45.176Z,19.97
2023-01-10T20:47:11.831Z,10.43
2023-01-10T20:49:38.440Z,17.23
2023-01-10T20:52:06.085Z,9.03
2023-01-10T20:54:34.738Z,14.80
2023-01-10T20:57:01.394Z,9.10
2023-01-10T20:59:29.376Z,12.47
2023-01-10T21:01:56.149Z,12.10
2023-01-10T21:04:22.837Z,12.17
2023-01-10T21:06:49.529Z,12.73
2023-01-10T21:09:16.624Z,12.37
2023-01-10T21:11:59.410Z,11.17
2023-01-10T21:14:29.943Z,11.90
2023-01-10T21:16:57.022Z,12.00
2023-01-10T21:19:23.594Z,9.30
2023-01-10T21:21:50.259Z,11.20
2023-01-10T21:24:16.899Z,12.00
2023-01-10T21:26:43.599Z,16.20
2023-01-10T21:29:12.849Z,12.53
2023-01-10T21:31:39.820Z,8.70
2023-01-10T21:34:06.535Z,11.40
2023-01-10T21:36:33.154Z,13.17
2023-01-10T21:38:59.858Z,7.67
2023-01-10T21:41:45.024Z,8.27
2023-01-10T21:44:11.695Z,5.03
2023-01-10T21:46:38.465Z,9.80
2023-01-10T21:49:05.184Z,8.80
2023-01-10T21:51:31.841Z,8.70
2023-01-10T21:53:59.179Z,5.83
2023-01-10T21:56:25.924Z,8.23
2023-01-10T21:58:52.592Z,6.77
2023-01-10T22:01:19.295Z,6.90
2023-01-10T22:03:46.224Z,4.30
2023-01-10T22:06:13.267Z,5.30
2023-01-10T22:08:39.909Z,6.07
2023-01-10T22:11:07.233Z,5.27
2023-01-10T22:13:34.780Z,5.17
2023-01-10T22:16:02.074Z,5.70
2023-01-10T22:18:30.467Z,5.17
2023-01-10T22:20:58.438Z,4.63
2023-01-10T22:23:25.309Z,7.43
2023-01-10T22:26:02.315Z,3.17
2023-01-10T22:28:29.179Z,5.37
2023-01-10T22:30:56.010Z,6.30
2023-01-10T22:33:23.655Z,3.97
2023-01-10T22:35:50.272Z,5.97
2023-01-10T22:38:16.949Z,5.97
2023-01-10T22:40:43.558Z,3.90
2023-01-10T22:43:10.209Z,4.50
2023-01-10T22:45:40.671Z,3.60
2023-01-10T22:48:07.401Z,3.83
2023-01-10T22:50:34.053Z,3.33
2023-01-10T22:53:00.814Z,2.87
2023-01-10T22:55:27.507Z,2.93
2023-01-10T22:57:54.146Z,3.63
2023-01-10T23:00:21.705Z,1.87
2023-01-10T23:02:48.405Z,1.83
2023-01-10T23:05:15.065Z,1.60
2023-01-10T23:07:41.752Z,2.57
2023-01-10T23:10:24.271Z,2.30
2023-01-10T23:12:55.323Z,3.07
2023-01-10T23:15:22.010Z,2.37
2023-01-10T23:17:48.716Z,5.70
2023-01-10T23:20:16.604Z,2.97
2023-01-10T23:22:44.146Z,4.43
2023-01-10T23:25:10.861Z,4.07
2023-01-10T23:27:38.557Z,4.80
2023-01-10T23:30:06.999Z,3.53
2023-01-10T23:32:33.683Z,2.30
2023-01-10T23:35:00.393Z,2.57
2023-01-10T23:37:27.052Z,3.13
2023-01-10T23:39:53.802Z,6.73
2023-01-10T23:42:20.396Z,1.50
2023-01-10T23:44:47.045Z,2.00
2023-01-10T23:47:14.043Z,2.30
2023-01-10T23:49:40.723Z,2.40
2023-01-10T23:52:07.372Z,2.40
2023-01-10T23:54:34.193Z,4.80
2023-01-10T23:57:00.942Z,1.27
2023-01-10T23:59:27.684Z,3.53
